Strongsville, OH (44136)

4:52 PM EST on January 23, 2017 (GMT -0500)
MOH160 | | Change Station
Active Advisory: Small Craft Advisory

Elev 1016 ft 41.29 °N, 81.80 °W | Updated 42 minutes ago

Rain
Rain
43.0 °F
Feels Like 43.0 °F
N
2.0
Wind Variable Wind from NNW
Gusts 4.0 mph

Today
High -- | Low -- °F
--% Chance of Precip.
Yesterday
High -- | Low -- °F
Precip. -- in
Pressure 29.62 in
Visibility 5.0 miles
Clouds Overcast 400 ft
Dew Point 43.0 °F
Humidity 99%
Rainfall 0.34 in
Snow Depth Not available.
7:46 AM 5:32 PM
Waning Crescent, 16% visible
METAR KCLE 232051Z 03008KT 5SM BR OVC004 06/03 A2961 RMK AO2 SLP029 T00560033 $
Pressure 29.62 in
Visibility 5.0 miles
Clouds Overcast 400 ft
Dew Point 43.0 °F
Humidity 99%
Rainfall 0.34 in
Snow Depth Not available.
7:46 AM 5:32 PM
Waning Crescent, 16% visible
METAR KCLE 232051Z 03008KT 5SM BR OVC004 06/03 A2961 RMK AO2 SLP029 T00560033 $

Get Your Daily Forecast Email!

Thanks for signing up!

Be on the lookout for a verification email in your inbox.

You'll start receiving the daily forecast at 8 AM.

×

10-Day Weather Forecast

Almanac

Astronomy

Jan. 23, 2017 Rise Set
Actual Time
Civil Twilight
Nautical Twilight
Astronomical Twilight
Moon
Length of Visible Light
Length of Day
Tomorrow will be .
, % of the Moon is Illuminated

Today's Extremes

State Highs State Lows

Community

WunderPhotos

Upload Photos

1,962,540 photos uploaded!

WunderBlog® & News

Nearby

Air Quality

  Air Quality AQ Index Pollutant
Not available.

Snow Depth

Station Depth Elevation

Earthquake Activity

City Distance Mag. Time & Date
Minimum magnitude displayed is 2.5.

Coastal Water Temperatures

Place Temperature

Stations

Nearby Weather Stations

Station Location Temp. Windchill Dew Point Humidity Wind Precip. Elev Updated Type
                   

Watches & Warnings

Small Craft Advisory
Issued: 3:21 PM EST Jan. 23, 2017 – National Weather Service

... Small Craft Advisory remains in effect until 4 am EST
Tuesday...

* winds... northeast 10 to 20 knots diminishing to 5 to 15 knots
tonight.

* Waves... 3 to 5 feet subsiding to 2 to 4 feet by late tonight.

Precautionary/preparedness actions...

A Small Craft Advisory is issued when waves of 4 feet or more are
expected or wind speeds reach 21 to 33 knots which may produce
hazardous conditions to small craft. Inexperienced mariners...
especially those operating smaller vessels... should stay in port
during these conditions.